createdAt,value
2023-04-13T00:01:11.621Z,62.61
2023-04-13T00:03:39.338Z,62.89
2023-04-13T00:06:10.784Z,62.46
2023-04-13T00:08:38.667Z,62.58
2023-04-13T00:11:07.833Z,62.40
2023-04-13T00:13:41.203Z,62.25
2023-04-13T00:16:09.811Z,61.99
2023-04-13T00:18:36.996Z,62.18
2023-04-13T00:21:07.988Z,62.28
2023-04-13T00:23:36.093Z,62.15
2023-04-13T00:26:03.347Z,62.44
2023-04-13T00:28:31.742Z,61.66
2023-04-13T00:30:58.792Z,61.99
2023-04-13T00:33:25.965Z,61.30
2023-04-13T00:35:53.056Z,60.99
2023-04-13T00:38:19.973Z,61.10
2023-04-13T00:40:46.887Z,61.03
2023-04-13T00:43:13.826Z,60.32
2023-04-13T00:45:42.665Z,60.34
2023-04-13T00:48:10.931Z,60.62
2023-04-13T00:50:39.201Z,59.95
2023-04-13T00:53:10.538Z,60.19
2023-04-13T00:55:39.325Z,60.70
2023-04-13T00:58:07.805Z,60.46
2023-04-13T01:00:38.942Z,60.67
2023-04-13T01:03:07.757Z,60.90
2023-04-13T01:05:43.390Z,60.70
2023-04-13T01:08:22.113Z,60.64
2023-04-13T01:10:58.808Z,60.93
2023-04-13T01:13:35.017Z,60.72
2023-04-13T01:16:06.525Z,60.59
2023-04-13T01:18:40.141Z,60.50
2023-04-13T01:21:14.250Z,60.71
2023-04-13T01:23:58.640Z,60.68
2023-04-13T01:26:37.044Z,60.27
2023-04-13T01:29:06.376Z,60.53
2023-04-13T01:31:35.782Z,60.88
2023-04-13T01:34:03.508Z,60.90
2023-04-13T01:36:33.473Z,60.44
2023-04-13T01:39:00.439Z,60.17
2023-04-13T01:41:27.316Z,60.22
2023-04-13T01:43:54.344Z,60.42
2023-04-13T01:46:27.912Z,60.42
2023-04-13T01:49:00.261Z,60.29
2023-04-13T01:51:32.310Z,59.95
2023-04-13T01:54:07.835Z,59.43
2023-04-13T01:56:36.122Z,60.49
2023-04-13T01:59:03.728Z,60.26
2023-04-13T02:01:31.911Z,60.33
2023-04-13T02:03:59.270Z,61.02
2023-04-13T02:06:26.335Z,60.21
2023-04-13T02:08:53.406Z,60.99
2023-04-13T02:11:20.329Z,60.12
2023-04-13T02:13:47.412Z,60.05
2023-04-13T02:16:15.658Z,59.28
2023-04-13T02:18:43.975Z,59.47
2023-04-13T02:21:11.246Z,59.72
2023-04-13T02:23:40.756Z,59.76
2023-04-13T02:26:08.532Z,59.76
2023-04-13T02:28:35.704Z,59.87
2023-04-13T02:31:06.074Z,59.35
2023-04-13T02:33:33.755Z,60.12
2023-04-13T02:36:04.042Z,59.84
2023-04-13T02:38:31.947Z,59.88
2023-04-13T02:41:00.951Z,59.89
2023-04-13T02:43:28.823Z,60.25
2023-04-13T02:45:57.934Z,59.42
2023-04-13T02:48:25.616Z,60.17
2023-04-13T02:50:53.420Z,60.34
2023-04-13T02:53:22.083Z,59.51
2023-04-13T02:55:50.281Z,60.09
2023-04-13T02:58:17.545Z,59.73
2023-04-13T03:00:44.517Z,60.09
2023-04-13T03:03:11.563Z,60.11
2023-04-13T03:05:38.775Z,59.78
2023-04-13T03:08:06.155Z,59.69
2023-04-13T03:10:34.573Z,59.67
2023-04-13T03:13:02.067Z,59.26
2023-04-13T03:15:30.566Z,58.97
2023-04-13T03:17:59.978Z,59.30
2023-04-13T03:20:29.024Z,59.13
2023-04-13T03:22:57.082Z,59.19
2023-04-13T03:25:24.067Z,58.91
2023-04-13T03:27:52.404Z,59.01
2023-04-13T03:30:19.310Z,58.44
2023-04-13T03:32:46.733Z,59.01
2023-04-13T03:35:13.730Z,58.84
2023-04-13T03:37:42.641Z,58.50
2023-04-13T03:40:11.248Z,58.63
2023-04-13T03:42:38.886Z,58.23
2023-04-13T03:45:08.620Z,58.63
2023-04-13T03:47:35.652Z,57.89
2023-04-13T03:50:03.638Z,57.52
2023-04-13T03:52:31.126Z,57.99
2023-04-13T03:54:58.114Z,58.57
2023-04-13T03:57:25.186Z,58.62
2023-04-13T03:59:52.178Z,58.37
2023-04-13T04:02:20.542Z,58.37
2023-04-13T04:04:47.541Z,58.69
2023-04-13T04:07:14.527Z,58.61
2023-04-13T04:09:42.389Z,58.71
2023-04-13T04:12:09.353Z,58.50
2023-04-13T04:14:36.810Z,59.00
2023-04-13T04:17:03.711Z,58.60
2023-04-13T04:19:31.964Z,59.38
2023-04-13T04:22:04.392Z,58.31
2023-04-13T04:24:31.425Z,59.34
2023-04-13T04:27:00.307Z,59.06
2023-04-13T04:29:33.988Z,58.75
2023-04-13T04:32:01.565Z,58.80
2023-04-13T04:34:29.025Z,59.24
2023-04-13T04:37:02.907Z,58.74
2023-04-13T04:39:32.853Z,59.06
2023-04-13T04:42:05.624Z,59.22
2023-04-13T04:44:32.672Z,58.75
2023-04-13T04:47:00.183Z,58.99
2023-04-13T04:49:28.496Z,58.68
2023-04-13T04:51:57.970Z,58.79
2023-04-13T04:54:25.528Z,59.29
2023-04-13T04:56:53.840Z,59.09
2023-04-13T04:59:20.800Z,58.64
2023-04-13T05:01:49.770Z,58.54
2023-04-13T05:04:17.165Z,58.51
2023-04-13T05:06:44.643Z,58.49
2023-04-13T05:09:14.906Z,58.29
2023-04-13T05:11:41.798Z,58.78
2023-04-13T05:14:08.688Z,58.74
2023-04-13T05:16:36.124Z,58.82
2023-04-13T05:19:05.270Z,58.61
2023-04-13T05:21:32.358Z,58.70
2023-04-13T05:23:59.817Z,58.71
2023-04-13T05:26:30.502Z,59.09
2023-04-13T05:28:57.695Z,58.34
2023-04-13T05:31:24.917Z,59.12
2023-04-13T05:33:51.840Z,58.82
2023-04-13T05:36:18.756Z,58.97
2023-04-13T05:38:45.755Z,58.94
2023-04-13T05:41:12.987Z,59.05
2023-04-13T05:43:41.359Z,59.41
2023-04-13T05:46:11.270Z,59.20
2023-04-13T05:48:38.482Z,59.65
2023-04-13T05:51:06.335Z,59.78
2023-04-13T05:53:33.218Z,59.83
2023-04-13T05:56:00.324Z,59.98
2023-04-13T05:58:27.302Z,60.26
2023-04-13T06:00:55.668Z,60.80
2023-04-13T06:03:22.995Z,61.17
2023-04-13T06:05:50.107Z,61.33
2023-04-13T06:08:17.189Z,61.71
2023-04-13T06:10:47.144Z,61.52
2023-04-13T06:13:14.561Z,61.31
2023-04-13T06:15:41.597Z,61.72
2023-04-13T06:18:09.770Z,61.81
2023-04-13T06:20:36.823Z,62.06
2023-04-13T06:23:03.952Z,62.45
2023-04-13T06:25:31.364Z,62.52
2023-04-13T06:28:00.937Z,62.22
2023-04-13T06:30:28.023Z,61.58
2023-04-13T06:32:55.195Z,60.84
2023-04-13T06:35:23.487Z,60.98
2023-04-13T06:37:51.670Z,61.11
2023-04-13T06:40:20.536Z,61.24
2023-04-13T06:42:47.466Z,60.81
2023-04-13T06:45:14.519Z,60.94
2023-04-13T06:47:41.645Z,61.17
2023-04-13T06:50:11.527Z,61.23
2023-04-13T06:52:43.780Z,61.31
2023-04-13T06:55:10.890Z,60.80
2023-04-13T06:57:37.782Z,60.88
2023-04-13T07:00:15.295Z,59.88
2023-04-13T07:02:53.393Z,59.66
2023-04-13T07:05:20.793Z,59.73
2023-04-13T07:07:49.118Z,59.54
2023-04-13T07:10:16.200Z,59.18
2023-04-13T07:12:43.072Z,59.01
2023-04-13T07:15:10.220Z,59.18
2023-04-13T07:17:37.197Z,58.21
2023-04-13T07:20:07.223Z,57.36
2023-04-13T07:22:35.190Z,57.59
2023-04-13T07:25:04.096Z,57.42
2023-04-13T07:27:32.940Z,56.83
2023-04-13T07:30:01.158Z,56.74
2023-04-13T07:32:31.517Z,57.00
2023-04-13T07:35:01.652Z,56.21
2023-04-13T07:37:32.454Z,55.90
2023-04-13T07:40:01.268Z,55.55
2023-04-13T07:42:30.805Z,54.31
2023-04-13T07:44:59.038Z,51.60
2023-04-13T07:47:29.274Z,49.71
2023-04-13T07:50:00.225Z,49.00
2023-04-13T07:52:29.972Z,46.71
2023-04-13T07:54:58.262Z,44.80
2023-04-13T07:57:29.182Z,43.01
2023-04-13T08:00:01.022Z,43.02
2023-04-13T08:02:29.057Z,43.89
2023-04-13T08:05:00.955Z,42.06
2023-04-13T08:07:39.888Z,40.67
2023-04-13T08:10:29.219Z,41.47
2023-04-13T08:13:25.837Z,40.01
2023-04-13T08:19:27.537Z,39.88
2023-04-13T08:22:14.749Z,40.44
2023-04-13T08:25:21.132Z,40.42
2023-04-13T08:31:27.913Z,42.26
2023-04-13T08:34:06.935Z,42.18
2023-04-13T08:37:13.012Z,42.39
2023-04-13T08:40:26.664Z,43.40
2023-04-13T08:43:37.924Z,44.67
2023-04-13T08:46:09.069Z,44.92
2023-04-13T08:48:53.558Z,44.75
2023-04-13T08:51:22.838Z,45.21
2023-04-13T08:53:58.868Z,45.25
2023-04-13T08:56:38.129Z,45.41
2023-04-13T08:59:15.185Z,45.38
2023-04-13T09:01:45.232Z,45.50
2023-04-13T09:04:17.946Z,45.01
2023-04-13T09:06:50.142Z,43.98
2023-04-13T09:09:19.100Z,44.34
2023-04-13T09:11:48.478Z,44.36
2023-04-13T09:14:20.157Z,44.43
2023-04-13T09:16:50.251Z,43.54
2023-04-13T09:19:29.248Z,38.99
2023-04-13T09:21:56.166Z,36.65
2023-04-13T09:24:23.458Z,36.36
2023-04-13T09:26:51.043Z,34.83
2023-04-13T09:29:20.395Z,33.45
2023-04-13T09:31:48.655Z,33.38
2023-04-13T09:34:27.640Z,34.89
2023-04-13T09:36:56.273Z,35.47
2023-04-13T09:39:26.602Z,36.52
2023-04-13T09:41:54.829Z,37.80
2023-04-13T09:44:28.067Z,38.78
2023-04-13T09:47:01.134Z,39.48
2023-04-13T09:49:37.951Z,40.37
2023-04-13T09:52:07.382Z,40.45
2023-04-13T09:54:35.083Z,40.71
2023-04-13T09:57:04.627Z,40.41
2023-04-13T09:59:32.933Z,40.42
2023-04-13T10:02:03.682Z,40.64
2023-04-13T10:04:31.172Z,39.91
2023-04-13T10:06:58.516Z,38.28
2023-04-13T10:09:26.513Z,37.42
2023-04-13T10:11:56.668Z,37.88
2023-04-13T10:14:31.688Z,38.03
2023-04-13T10:17:37.299Z,38.92
2023-04-13T10:20:12.582Z,39.04
2023-04-13T10:22:43.951Z,39.89
2023-04-13T10:25:25.699Z,40.46
2023-04-13T10:28:00.637Z,41.03
2023-04-13T10:30:28.480Z,41.24
2023-04-13T10:33:05.560Z,42.20
2023-04-13T10:35:36.995Z,42.06
2023-04-13T10:38:04.742Z,42.16
2023-04-13T10:40:45.043Z,41.92
2023-04-13T10:43:12.609Z,42.33
2023-04-13T10:45:39.557Z,42.41
2023-04-13T10:48:08.098Z,42.58
2023-04-13T10:50:35.205Z,43.46
2023-04-13T10:53:07.372Z,43.29
2023-04-13T10:55:35.319Z,42.59
2023-04-13T10:58:15.747Z,39.86
2023-04-13T11:00:46.761Z,38.44
2023-04-13T11:03:17.453Z,36.14
2023-04-13T11:05:45.971Z,35.72
2023-04-13T11:08:18.874Z,35.01
2023-04-13T11:10:51.557Z,35.19
2023-04-13T11:13:18.495Z,35.85
2023-04-13T11:15:45.649Z,37.16
2023-04-13T11:18:12.632Z,38.58
2023-04-13T11:20:41.846Z,40.25
2023-04-13T11:23:18.658Z,40.76
2023-04-13T11:25:54.696Z,40.62
2023-04-13T11:28:23.458Z,39.31
2023-04-13T11:30:55.971Z,38.21
2023-04-13T11:33:27.205Z,35.70
2023-04-13T11:35:57.370Z,34.50
2023-04-13T11:38:25.206Z,34.50
2023-04-13T11:41:01.669Z,34.90
2023-04-13T11:43:40.432Z,36.50
2023-04-13T11:46:12.724Z,37.10
2023-04-13T11:48:40.559Z,37.62
2023-04-13T11:51:11.035Z,36.39
2023-04-13T11:53:38.658Z,34.89
2023-04-13T11:56:06.539Z,34.94
2023-04-13T11:58:33.624Z,34.16
2023-04-13T12:01:13.852Z,33.07
2023-04-13T12:03:55.705Z,34.37
2023-04-13T12:06:34.301Z,35.01
2023-04-13T12:09:10.328Z,34.47
2023-04-13T12:11:50.085Z,34.84
2023-04-13T12:19:27.518Z,36.02
2023-04-13T12:21:57.658Z,35.96
2023-04-13T12:24:33.005Z,36.31
2023-04-13T12:29:38.106Z,37.21
2023-04-13T12:32:11.573Z,37.28
2023-04-13T12:34:38.479Z,37.74
2023-04-13T12:37:07.588Z,37.95
2023-04-13T12:39:35.080Z,38.57
2023-04-13T12:42:02.491Z,39.52
2023-04-13T12:44:31.229Z,41.85
2023-04-13T12:46:59.672Z,42.80
2023-04-13T12:49:26.605Z,43.74
2023-04-13T12:51:53.574Z,44.94
2023-04-13T12:54:21.837Z,45.38
2023-04-13T12:56:48.739Z,46.06
2023-04-13T12:59:16.597Z,46.71
2023-04-13T13:01:43.582Z,47.25
2023-04-13T13:04:10.784Z,47.90
2023-04-13T13:06:37.888Z,47.46
2023-04-13T13:09:05.728Z,47.11
2023-04-13T13:11:34.211Z,46.87
2023-04-13T13:14:01.206Z,47.41
2023-04-13T13:16:28.602Z,47.44
2023-04-13T13:18:55.961Z,47.51
2023-04-13T13:21:23.133Z,46.98
2023-04-13T13:23:51.409Z,46.68
2023-04-13T13:28:50.611Z,44.08
2023-04-13T13:31:17.747Z,44.17
2023-04-13T13:33:44.941Z,43.56
2023-04-13T13:36:13.730Z,40.95
2023-04-13T13:38:40.640Z,39.90
2023-04-13T13:41:07.759Z,39.38
2023-04-13T13:43:36.086Z,38.16
2023-04-13T13:46:07.824Z,37.24
2023-04-13T13:48:36.615Z,35.18
2023-04-13T13:51:06.207Z,35.60
2023-04-13T13:53:34.683Z,33.97
2023-04-13T13:56:03.706Z,33.60
2023-04-13T13:58:31.214Z,34.29
2023-04-13T14:00:58.926Z,34.44
2023-04-13T14:03:27.615Z,34.44
2023-04-13T14:05:54.694Z,34.81
2023-04-13T14:08:22.156Z,35.34
2023-04-13T14:10:50.160Z,36.19
2023-04-13T14:15:44.817Z,38.29
2023-04-13T14:18:12.107Z,39.45
2023-04-13T14:20:40.809Z,39.77
2023-04-13T14:23:09.177Z,40.49
2023-04-13T14:25:37.533Z,41.72
2023-04-13T14:28:06.535Z,42.80
2023-04-13T14:30:33.826Z,43.24
2023-04-13T14:33:01.377Z,43.51
2023-04-13T14:35:29.188Z,43.25
2023-04-13T14:37:57.725Z,43.67
2023-04-13T14:40:24.905Z,43.85
2023-04-13T14:42:55.293Z,44.08
2023-04-13T14:45:22.441Z,44.46
2023-04-13T14:47:49.941Z,44.92
2023-04-13T14:50:17.616Z,45.06
2023-04-13T14:52:50.299Z,45.50
2023-04-13T14:55:19.365Z,45.73
2023-04-13T14:58:11.457Z,45.94
2023-04-13T15:00:38.891Z,46.11
2023-04-13T15:03:07.955Z,46.85
2023-04-13T15:05:39.137Z,47.52
2023-04-13T15:08:07.778Z,47.90
2023-04-13T15:10:36.492Z,47.31
2023-04-13T15:13:05.026Z,47.69
2023-04-13T15:15:34.612Z,47.20
2023-04-13T15:18:03.214Z,46.48
2023-04-13T15:20:31.406Z,46.84
2023-04-13T15:22:58.922Z,46.47
2023-04-13T15:25:27.447Z,46.50
2023-04-13T15:27:58.584Z,46.29
2023-04-13T15:30:28.040Z,46.21
2023-04-13T15:32:57.219Z,46.18
2023-04-13T15:35:25.839Z,46.74
2023-04-13T15:37:54.465Z,47.16
2023-04-13T15:40:27.357Z,47.40
2023-04-13T15:42:56.070Z,47.58
2023-04-13T15:45:23.329Z,47.89
2023-04-13T15:47:51.634Z,47.64
2023-04-13T15:50:19.686Z,47.46
2023-04-13T15:52:46.677Z,47.67
2023-04-13T15:55:14.032Z,47.43
2023-04-13T15:57:41.074Z,47.56
2023-04-13T16:00:11.082Z,47.73
2023-04-13T16:02:38.363Z,48.07
2023-04-13T16:05:05.809Z,48.25
2023-04-13T16:07:32.711Z,48.14
2023-04-13T16:10:01.451Z,47.93
2023-04-13T16:12:31.636Z,47.63
2023-04-13T16:14:59.424Z,46.94
2023-04-13T16:17:31.697Z,47.11
2023-04-13T16:20:08.210Z,46.80
2023-04-13T16:22:35.707Z,46.89
2023-04-13T16:25:05.448Z,46.60
2023-04-13T16:27:32.520Z,46.61
2023-04-13T16:29:59.589Z,47.08
2023-04-13T16:32:28.178Z,46.77
2023-04-13T16:34:55.591Z,46.39
2023-04-13T16:37:22.752Z,45.44
2023-04-13T16:39:49.721Z,46.04
2023-04-13T16:42:19.304Z,45.93
2023-04-13T16:44:46.203Z,45.93
2023-04-13T16:47:13.758Z,46.05
2023-04-13T16:49:42.332Z,46.49
2023-04-13T16:52:09.504Z,47.38
2023-04-13T16:54:36.826Z,47.53
2023-04-13T16:57:04.022Z,47.38
2023-04-13T16:59:31.218Z,47.15
2023-04-13T17:01:58.806Z,47.69
2023-04-13T17:04:26.546Z,47.73
2023-04-13T17:07:01.769Z,47.57
2023-04-13T17:09:29.103Z,47.53
2023-04-13T17:11:56.398Z,47.44
2023-04-13T17:14:23.319Z,47.91
2023-04-13T17:16:51.833Z,48.33
2023-04-13T17:19:19.199Z,48.57
2023-04-13T17:21:46.204Z,48.93
2023-04-13T17:24:14.400Z,48.92
2023-04-13T17:26:41.448Z,49.17
2023-04-13T17:29:08.424Z,49.07
2023-04-13T17:31:35.844Z,49.17
2023-04-13T17:34:02.883Z,49.02
2023-04-13T17:36:31.310Z,49.00
2023-04-13T17:38:58.481Z,49.50
2023-04-13T17:41:27.096Z,49.26
2023-04-13T17:43:53.959Z,49.16
2023-04-13T17:46:21.129Z,49.49
2023-04-13T17:48:48.151Z,49.57
2023-04-13T17:51:15.068Z,49.79
2023-04-13T17:53:41.945Z,49.77
2023-04-13T17:56:14.851Z,49.55
2023-04-13T17:58:43.767Z,49.62
2023-04-13T18:01:11.863Z,49.39
2023-04-13T18:03:39.481Z,49.60
2023-04-13T18:06:07.466Z,50.28
2023-04-13T18:08:34.579Z,50.22
2023-04-13T18:11:01.466Z,50.30
2023-04-13T18:13:29.288Z,50.45
2023-04-13T18:15:57.775Z,50.45
2023-04-13T18:18:25.106Z,50.46
2023-04-13T18:20:52.545Z,50.73
2023-04-13T18:23:20.254Z,50.76
2023-04-13T18:25:48.550Z,50.75
2023-04-13T18:28:16.674Z,50.92
2023-04-13T18:30:45.635Z,51.37
2023-04-13T18:33:14.216Z,51.22
2023-04-13T18:35:42.633Z,51.16
2023-04-13T18:38:10.018Z,51.13
2023-04-13T18:40:37.204Z,51.23
2023-04-13T18:43:04.105Z,51.25
2023-04-13T18:45:31.033Z,51.64
2023-04-13T18:47:58.140Z,51.77
2023-04-13T18:50:26.604Z,51.75
2023-04-13T18:52:53.671Z,52.01
2023-04-13T18:55:20.663Z,52.20
2023-04-13T18:57:47.767Z,52.04
2023-04-13T19:00:16.401Z,52.20
2023-04-13T19:02:46.718Z,52.24
2023-04-13T19:05:13.979Z,51.85
2023-04-13T19:07:44.814Z,52.01
2023-04-13T19:10:11.830Z,52.09
2023-04-13T19:12:39.132Z,52.16
2023-04-13T19:15:07.800Z,52.77
2023-04-13T19:17:37.989Z,52.58
2023-04-13T19:20:10.027Z,52.62
2023-04-13T19:22:37.303Z,52.39
2023-04-13T19:25:14.039Z,52.30
2023-04-13T19:27:41.947Z,52.55
2023-04-13T19:30:10.141Z,52.39
2023-04-13T19:32:37.335Z,52.24
2023-04-13T19:35:05.277Z,52.46
2023-04-13T19:37:32.625Z,52.40
2023-04-13T19:39:59.640Z,52.32
2023-04-13T19:42:31.228Z,52.91
2023-04-13T19:44:58.196Z,52.56
2023-04-13T19:47:25.197Z,52.59
2023-04-13T19:49:52.108Z,52.52
2023-04-13T19:52:19.099Z,52.79
2023-04-13T19:54:46.610Z,52.85
2023-04-13T19:57:13.727Z,53.26
2023-04-13T19:59:44.032Z,53.16
2023-04-13T20:02:11.619Z,53.10
2023-04-13T20:04:39.941Z,53.11
2023-04-13T20:07:07.738Z,53.42
2023-04-13T20:09:34.703Z,53.33
2023-04-13T20:12:01.823Z,53.37
2023-04-13T20:14:28.748Z,53.11
2023-04-13T20:16:57.077Z,53.00
2023-04-13T20:19:24.933Z,52.84
2023-04-13T20:21:54.129Z,53.01
2023-04-13T20:24:21.177Z,52.97
2023-04-13T20:26:48.233Z,53.08
2023-04-13T20:29:19.002Z,53.57
2023-04-13T20:31:46.056Z,53.97
2023-04-13T20:34:15.423Z,53.90
2023-04-13T20:36:42.423Z,53.90
2023-04-13T20:39:09.781Z,53.18
2023-04-13T20:41:37.062Z,53.30
2023-04-13T20:44:09.805Z,53.51
2023-04-13T20:46:41.846Z,53.69
2023-04-13T20:49:11.817Z,53.69
2023-04-13T20:51:40.149Z,53.92
2023-04-13T20:54:07.047Z,54.04
2023-04-13T20:56:34.161Z,54.07
2023-04-13T20:59:02.609Z,53.96
2023-04-13T21:01:30.446Z,54.03
2023-04-13T21:03:57.488Z,54.39
2023-04-13T21:06:24.677Z,54.27
2023-04-13T21:08:54.674Z,54.13
2023-04-13T21:11:21.619Z,54.22
2023-04-13T21:13:48.543Z,54.24
2023-04-13T21:16:15.540Z,54.19
2023-04-13T21:18:42.631Z,54.11
2023-04-13T21:21:09.518Z,54.26
2023-04-13T21:23:37.221Z,54.36
2023-04-13T21:26:07.004Z,54.58
2023-04-13T21:28:33.958Z,54.90
2023-04-13T21:31:00.878Z,54.93
2023-04-13T21:33:27.752Z,54.53
2023-04-13T21:35:54.642Z,54.25
2023-04-13T21:38:21.721Z,54.40
2023-04-13T21:40:48.695Z,54.45
2023-04-13T21:43:16.969Z,54.42
2023-04-13T21:45:44.022Z,54.42
2023-04-13T21:48:11.026Z,54.64
2023-04-13T21:50:37.909Z,54.87
2023-04-13T21:53:04.754Z,55.05
2023-04-13T21:55:31.650Z,54.89
2023-04-13T21:57:58.533Z,54.62
2023-04-13T22:00:27.108Z,54.34
2023-04-13T22:02:55.238Z,54.33
2023-04-13T22:05:22.218Z,54.28
2023-04-13T22:07:49.138Z,54.74
2023-04-13T22:10:16.067Z,54.94
2023-04-13T22:12:43.032Z,55.11
2023-04-13T22:15:11.725Z,54.99
2023-04-13T22:17:39.991Z,54.77
2023-04-13T22:20:08.685Z,54.83
2023-04-13T22:22:35.696Z,54.76
2023-04-13T22:25:02.628Z,54.82
2023-04-13T22:27:29.550Z,54.80
2023-04-13T22:29:56.615Z,54.91
2023-04-13T22:32:23.786Z,54.75
2023-04-13T22:34:52.059Z,54.87
2023-04-13T22:37:18.968Z,54.85
2023-04-13T22:39:45.846Z,54.64
2023-04-13T22:42:12.738Z,54.80
2023-04-13T22:44:39.682Z,54.91
2023-04-13T22:47:06.579Z,54.98
2023-04-13T22:49:33.516Z,54.98
2023-04-13T22:52:01.736Z,55.12
2023-04-13T22:54:28.605Z,55.33
2023-04-13T22:56:55.869Z,55.32
2023-04-13T22:59:22.794Z,55.53
2023-04-13T23:01:49.771Z,55.73
2023-04-13T23:04:16.754Z,55.62
2023-04-13T23:06:43.770Z,55.86
2023-04-13T23:09:11.943Z,56.01
2023-04-13T23:11:38.887Z,56.31
2023-04-13T23:14:06.536Z,56.24
2023-04-13T23:16:33.873Z,56.50
2023-04-13T23:19:01.201Z,56.93
2023-04-13T23:21:28.957Z,56.61
2023-04-13T23:23:56.055Z,56.67
2023-04-13T23:26:24.412Z,56.65
2023-04-13T23:28:51.325Z,56.43
2023-04-13T23:31:18.414Z,56.96
2023-04-13T23:33:45.407Z,57.07
2023-04-13T23:36:12.549Z,56.83
2023-04-13T23:38:39.448Z,56.79
2023-04-13T23:41:06.407Z,57.05
2023-04-13T23:43:34.675Z,57.57
2023-04-13T23:46:01.794Z,57.10
2023-04-13T23:48:28.898Z,57.60
2023-04-13T23:50:57.142Z,57.30
2023-04-13T23:53:24.165Z,57.36
2023-04-13T23:55:51.048Z,57.35
2023-04-13T23:58:18.085Z,57.07
